Aérodrome :
LOGIN :

S'inscrire | Disclaimer

   EN    FR    IT 

 










Légende :    VFR   VFR Marginal   IFR   IFR Intensif   IFR Très Intensif
Visi : 
Plafond : 
>= 8 km
>= 3000ft
5 à 8 km
1000 à 3000 ft
1500m à 5 km
500 à 1000 ft
800 à 1500m
200 à 500 ft
< 800m
< 200 ft
Symboles :   Orages  Brouillard  Fortes neiges  Fortes précipitations  Vent > 20 kt
SIGMETs :   Divers  Orages  Givrage  Turbulence  Onde Orograph.  Cendres Volcan.







- Altitude de l'aérodrome : 600 ft
- Code IATA : VIE


LOWW - Vienna Schwechat

DERNIER METAR :
  • 161920Z 20005KT CAVOK 20/16 Q1010 NOSIG

METARs EXPIRÉS :
  • 161850Z 19004KT CAVOK 20/16 Q1010 NOSIG
  • 161820Z 18005KT CAVOK 22/16 Q1010 NOSIG
  • 161750Z 24004KT 210V270 CAVOK 24/14 Q1010 NOSIG
  • 161720Z 26006KT 220V300 CAVOK 25/14 Q1010 NOSIG
  • 161650Z 24005KT 210V290 CAVOK 24/15 Q1011 NOSIG

TAF AMD TAF LOWW
Valide du 16 à 18h jusqu'au 18 à 00h UTC


161810Z 1618/1724 27007KT CAVOK TX28/1714Z TN18/1702Z
PROB30
TEMPO 1618/1621 19005KT 9999 FEW050 FEW050TCU SCT100
BECMG 1707/1709 29013KT 9999 FEW050
TEMPO 1710/1716 32017G27KT SCT050 FEW050TCU
Pas de NOTAMs connus pour ce terrain.



MET'MAP, la Météo Aéronautique d'un coup d'oeil ! - Copyright ORBIFLY Décembre 2007 - Disclaimer

ORBIFLY MET'MAP TEAM :

Programmation & Développement : Alexandra Zaïnal
Conception & Développement : Baudouin d'Aumeries
Co-Programmation & Développement : Marc-Olivier Méhu
Soutien technique & logistique : Manuel Goepfert

Contact : metmap@orbifly.com




SOURCES & CREDITS :

   NOAA